Time;durP1;ratioP1;P1;durP2;ratioP2;P2;SDS_P1;SDS_P2;PMS_P1;PMS_P2;Temp;Humidity;BMP_temperature;BMP_pressure;BME280_temperature;BME280_humidity;BME280_pressure;Samples;Min_cycle;Max_cycle;Signal;HPM_P1;HPM_P2
2021/09/09 00:00:05;;;;;;;7.85;5.30;;;;;;;;;;5053072;28;20227;-74
2021/09/09 00:02:32;;;;;;;7.80;5.82;;;;;;;;;;5048153;28;20302;-75
2021/09/09 00:05:01;;;;;;;7.63;5.72;;;;;;;;;;5053209;28;20238;-75
2021/09/09 00:07:28;;;;;;;7.35;4.78;;;;;;;;;;5053370;28;20286;-74
2021/09/09 00:09:55;;;;;;;5.00;4.17;;;;;;;;;;5053109;28;20202;-75
2021/09/09 00:12:22;;;;;;;7.37;4.30;;;;;;;;;;5052976;28;20683;-75
2021/09/09 00:14:50;;;;;;;7.23;4.33;;;;;;;;;;5049398;28;20810;-75
2021/09/09 00:17:17;;;;;;;7.97;4.47;;;;;;;;;;5033200;28;20232;-74
2021/09/09 00:19:44;;;;;;;5.80;4.30;;;;;;;;;;5032799;28;20232;-76
2021/09/09 00:22:13;;;;;;;6.47;4.20;;;;;;;;;;5042724;28;20235;-75
2021/09/09 00:24:40;;;;;;;5.13;3.80;;;;;;;;;;5053070;28;20279;-75
2021/09/09 00:27:07;;;;;;;7.17;4.30;;;;;;;;;;5051794;28;20299;-75
2021/09/09 00:29:35;;;;;;;7.80;4.30;;;;;;;;;;5052467;28;20287;-75
2021/09/09 00:32:02;;;;;;;5.67;4.10;;;;;;;;;;5052342;28;20307;-74
2021/09/09 00:34:29;;;;;;;7.13;4.60;;;;;;;;;;5052510;28;20722;-74
2021/09/09 00:36:56;;;;;;;8.90;4.60;;;;;;;;;;5051888;28;20306;-75
2021/09/09 00:39:25;;;;;;;5.73;4.40;;;;;;;;;;5051756;28;20295;-75
2021/09/09 00:41:53;;;;;;;7.20;4.40;;;;;;;;;;5051963;28;20200;-76
2021/09/09 00:44:24;;;;;;;6.97;5.10;;;;;;;;;;5051838;28;20231;-75
2021/09/09 00:47:00;;;;;;;9.07;5.20;;;;;;;;;;5052174;28;20282;-75
2021/09/09 00:49:28;;;;;;;8.10;5.20;;;;;;;;;;5032730;28;20714;-75
2021/09/09 00:51:55;;;;;;;11.70;5.57;;;;;;;;;;5043439;28;20280;-74
2021/09/09 00:54:22;;;;;;;8.07;6.03;;;;;;;;;;5052695;28;20222;-76
2021/09/09 00:56:51;;;;;;;6.73;5.40;;;;;;;;;;5051335;28;20307;-75
2021/09/09 00:59:19;;;;;;;6.50;5.37;;;;;;;;;;5044779;28;20743;-75
2021/09/09 01:01:47;;;;;;;8.80;6.00;;;;;;;;;;5038547;28;20251;-75
2021/09/09 01:04:14;;;;;;;7.07;5.33;;;;;;;;;;5032749;28;20672;-74
2021/09/09 01:06:41;;;;;;;8.57;5.33;;;;;;;;;;5051962;28;20635;-75
2021/09/09 01:09:09;;;;;;;14.43;5.70;;;;;;;;;;5040741;28;20291;-74
2021/09/09 01:11:36;;;;;;;8.50;5.67;;;;;;;;;;5031939;28;20231;-75
2021/09/09 01:14:09;;;;;;;7.77;5.87;;;;;;;;;;5031928;28;20254;-75
2021/09/09 01:16:37;;;;;;;7.33;6.10;;;;;;;;;;5043211;28;20310;-75
2021/09/09 01:19:04;;;;;;;9.50;5.97;;;;;;;;;;5051899;28;20639;-75
2021/09/09 01:21:32;;;;;;;10.47;6.53;;;;;;;;;;5037175;28;20291;-74
2021/09/09 01:23:59;;;;;;;9.47;6.50;;;;;;;;;;5032397;28;20737;-74
2021/09/09 01:26:29;;;;;;;9.53;6.33;;;;;;;;;;5031463;28;20243;-75
2021/09/09 01:28:57;;;;;;;9.87;5.83;;;;;;;;;;5039929;28;20204;-74
2021/09/09 01:31:24;;;;;;;6.77;5.60;;;;;;;;;;5051116;28;20196;-75
2021/09/09 01:33:55;;;;;;;6.63;5.33;;;;;;;;;;5051288;28;20286;-75
2021/09/09 01:36:23;;;;;;;9.50;5.93;;;;;;;;;;5050898;28;20223;-75
2021/09/09 01:38:50;;;;;;;7.13;5.30;;;;;;;;;;5051615;28;20290;-75
2021/09/09 01:41:17;;;;;;;7.83;5.57;;;;;;;;;;5051616;28;20286;-74
2021/09/09 01:43:46;;;;;;;7.73;5.67;;;;;;;;;;5051030;28;20200;-75
2021/09/09 01:46:13;;;;;;;7.80;5.63;;;;;;;;;;5050531;28;20708;-75
2021/09/09 01:48:40;;;;;;;8.90;5.63;;;;;;;;;;5051247;28;20237;-75
2021/09/09 01:51:08;;;;;;;8.53;5.57;;;;;;;;;;5051372;28;20519;-75
2021/09/09 01:53:35;;;;;;;7.83;5.77;;;;;;;;;;5051260;28;20548;-75
2021/09/09 01:56:02;;;;;;;7.13;5.70;;;;;;;;;;5050552;28;20322;-74
2021/09/09 01:58:30;;;;;;;9.53;5.87;;;;;;;;;;5051227;28;20290;-75
2021/09/09 02:00:58;;;;;;;8.87;5.87;;;;;;;;;;5050676;28;20758;-75
2021/09/09 02:03:26;;;;;;;9.47;6.40;;;;;;;;;;5051088;28;20293;-75
2021/09/09 02:05:53;;;;;;;10.10;5.87;;;;;;;;;;5050598;28;20235;-74
2021/09/09 02:08:21;;;;;;;9.37;6.17;;;;;;;;;;5051283;28;20239;-74
2021/09/09 02:10:48;;;;;;;7.30;6.00;;;;;;;;;;5050648;28;20292;-75
2021/09/09 02:13:15;;;;;;;9.27;5.77;;;;;;;;;;5051383;28;20283;-75
2021/09/09 02:15:43;;;;;;;10.90;5.93;;;;;;;;;;5050593;28;20243;-75
2021/09/09 02:18:12;;;;;;;8.83;5.60;;;;;;;;;;5050873;28;20201;-74
2021/09/09 02:20:40;;;;;;;9.43;5.80;;;;;;;;;;5050726;28;20349;-75
2021/09/09 02:23:07;;;;;;;7.63;5.93;;;;;;;;;;5047822;28;20243;-75
2021/09/09 02:25:34;;;;;;;7.57;6.13;;;;;;;;;;5050955;28;20200;-75
2021/09/09 02:28:02;;;;;;;9.33;6.20;;;;;;;;;;5050033;28;20770;-75
2021/09/09 02:30:29;;;;;;;11.00;6.53;;;;;;;;;;5045878;28;20308;-75
2021/09/09 02:32:56;;;;;;;8.50;6.50;;;;;;;;;;5048614;28;20291;-75
2021/09/09 02:35:25;;;;;;;8.70;6.00;;;;;;;;;;5041449;28;20288;-76
2021/09/09 02:37:52;;;;;;;10.53;6.30;;;;;;;;;;5045218;28;20288;-74
2021/09/09 02:40:19;;;;;;;11.50;6.37;;;;;;;;;;5042449;28;20291;-75
2021/09/09 02:42:47;;;;;;;10.83;5.97;;;;;;;;;;5041578;28;20755;-74
2021/09/09 02:45:14;;;;;;;8.63;6.23;;;;;;;;;;5049779;28;20195;-74
2021/09/09 02:47:41;;;;;;;11.27;7.00;;;;;;;;;;5048014;28;20295;-76
2021/09/09 02:50:09;;;;;;;9.03;6.47;;;;;;;;;;5040749;28;20250;-75
2021/09/09 02:52:38;;;;;;;7.17;6.40;;;;;;;;;;5051776;28;20290;-75
2021/09/09 02:55:05;;;;;;;9.40;6.70;;;;;;;;;;5049679;28;20284;-75
2021/09/09 02:57:33;;;;;;;10.00;6.50;;;;;;;;;;5047468;28;20223;-75
2021/09/09 03:00:00;;;;;;;9.57;7.47;;;;;;;;;;5041508;28;20287;-75
2021/09/09 03:02:27;;;;;;;9.23;7.20;;;;;;;;;;5034085;28;20216;-75
2021/09/09 03:04:54;;;;;;;12.10;7.67;;;;;;;;;;5039810;28;20307;-75
2021/09/09 03:07:22;;;;;;;10.33;7.00;;;;;;;;;;5045690;28;20303;-74
2021/09/09 03:09:50;;;;;;;9.93;6.80;;;;;;;;;;5053640;28;20620;-75
2021/09/09 03:12:18;;;;;;;10.40;7.30;;;;;;;;;;5053840;28;20265;-75
2021/09/09 03:14:45;;;;;;;9.93;7.57;;;;;;;;;;5053399;28;20279;-75
2021/09/09 03:17:12;;;;;;;8.03;7.23;;;;;;;;;;5053571;28;20314;-76
2021/09/09 03:19:40;;;;;;;9.70;7.90;;;;;;;;;;5053784;28;20291;-74
2021/09/09 03:22:07;;;;;;;11.30;8.40;;;;;;;;;;5053186;28;20199;-74
2021/09/09 03:24:34;;;;;;;9.10;7.20;;;;;;;;;;5034769;28;20304;-75
2021/09/09 03:27:03;;;;;;;10.43;8.13;;;;;;;;;;5033559;28;20228;-75
2021/09/09 03:29:31;;;;;;;11.87;7.73;;;;;;;;;;5033766;28;20301;-74
2021/09/09 03:31:58;;;;;;;11.23;7.97;;;;;;;;;;5034761;28;20232;-74
2021/09/09 03:34:26;;;;;;;8.50;7.60;;;;;;;;;;5053382;28;20231;-74
2021/09/09 03:36:53;;;;;;;10.13;7.97;;;;;;;;;;5049033;28;20302;-75
2021/09/09 03:39:20;;;;;;;9.20;7.80;;;;;;;;;;5051989;28;20286;-75
2021/09/09 03:41:47;;;;;;;12.30;8.00;;;;;;;;;;5053525;28;20638;-74
2021/09/09 03:44:16;;;;;;;10.13;7.50;;;;;;;;;;5053703;28;20227;-75
2021/09/09 03:46:43;;;;;;;10.27;7.87;;;;;;;;;;5052846;28;20227;-75
2021/09/09 03:49:10;;;;;;;10.20;7.13;;;;;;;;;;5053169;28;20208;-74
2021/09/09 03:51:38;;;;;;;11.13;7.13;;;;;;;;;;5052196;28;20282;-75
2021/09/09 03:54:05;;;;;;;8.93;6.77;;;;;;;;;;5052973;28;20298;-75
2021/09/09 03:56:32;;;;;;;9.67;7.43;;;;;;;;;;5042883;28;20306;-74
2021/09/09 03:58:59;;;;;;;9.83;7.67;;;;;;;;;;5052397;28;20235;-75
2021/09/09 04:01:28;;;;;;;10.83;7.23;;;;;;;;;;5052654;28;20291;-75
2021/09/09 04:03:55;;;;;;;11.20;7.37;;;;;;;;;;5048192;28;20311;-74
2021/09/09 04:06:22;;;;;;;11.37;7.57;;;;;;;;;;5043303;28;20228;-75
2021/09/09 04:08:50;;;;;;;10.50;6.87;;;;;;;;;;5038903;28;20295;-75
2021/09/09 04:11:17;;;;;;;12.57;7.30;;;;;;;;;;5046603;28;20302;-75
2021/09/09 04:13:44;;;;;;;10.63;7.23;;;;;;;;;;5051416;28;20290;-76
2021/09/09 04:16:12;;;;;;;9.00;7.30;;;;;;;;;;5052797;28;20314;-74
2021/09/09 04:18:41;;;;;;;9.43;7.30;;;;;;;;;;5052191;28;20291;-75
2021/09/09 04:21:08;;;;;;;11.20;7.90;;;;;;;;;;5039255;28;20228;-74
2021/09/09 04:23:35;;;;;;;11.83;8.03;;;;;;;;;;5052847;28;20291;-75
2021/09/09 04:26:02;;;;;;;13.13;7.80;;;;;;;;;;5052285;28;20283;-75
2021/09/09 04:28:30;;;;;;;11.50;8.20;;;;;;;;;;5052986;28;20287;-74
2021/09/09 04:30:57;;;;;;;12.80;8.10;;;;;;;;;;5044416;28;20284;-75
2021/09/09 04:33:24;;;;;;;9.23;7.30;;;;;;;;;;5039991;28;20464;-75
2021/09/09 04:35:55;;;;;;;11.27;7.90;;;;;;;;;;5032716;28;20295;-75
2021/09/09 04:38:22;;;;;;;12.60;7.93;;;;;;;;;;5035194;28;20287;-75
2021/09/09 04:40:52;;;;;;;11.03;7.70;;;;;;;;;;5040219;28;20895;-74
2021/09/09 04:43:19;;;;;;;12.10;7.63;;;;;;;;;;5041846;28;20279;-75
2021/09/09 04:45:48;;;;;;;13.33;7.70;;;;;;;;;;5051991;28;20279;-74
2021/09/09 04:48:16;;;;;;;9.57;7.37;;;;;;;;;;5051034;28;20648;-74
2021/09/09 04:50:45;;;;;;;10.20;7.27;;;;;;;;;;5050205;28;20223;-75
2021/09/09 04:53:16;;;;;;;8.20;7.40;;;;;;;;;;5042366;28;20202;-75
2021/09/09 04:55:45;;;;;;;15.27;7.80;;;;;;;;;;5040387;28;20286;-75
2021/09/09 04:58:15;;;;;;;12.17;7.90;;;;;;;;;;5031821;28;20226;-74
2021/09/09 05:00:44;;;;;;;12.60;7.90;;;;;;;;;;5041624;28;20393;-75
2021/09/09 05:03:13;;;;;;;11.13;7.40;;;;;;;;;;5049754;28;20322;-75
2021/09/09 05:05:43;;;;;;;11.40;8.13;;;;;;;;;;5048090;28;20199;-75
2021/09/09 05:08:13;;;;;;;11.23;8.20;;;;;;;;;;5050974;28;20227;-75
2021/09/09 05:10:44;;;;;;;12.17;7.90;;;;;;;;;;5047921;28;20359;-75
2021/09/09 05:13:11;;;;;;;10.90;7.53;;;;;;;;;;5050618;28;20291;-75
2021/09/09 05:15:39;;;;;;;9.40;7.90;;;;;;;;;;5051516;28;20286;-75
2021/09/09 05:18:09;;;;;;;11.23;7.80;;;;;;;;;;5045894;28;20735;-75
2021/09/09 05:20:38;;;;;;;9.83;7.50;;;;;;;;;;5034206;28;20287;-75
2021/09/09 05:23:07;;;;;;;9.83;7.87;;;;;;;;;;5040215;28;20291;-75
2021/09/09 05:25:37;;;;;;;13.27;7.90;;;;;;;;;;5047290;28;20201;-75
2021/09/09 05:28:07;;;;;;;13.27;7.63;;;;;;;;;;5049718;28;20283;-75
2021/09/09 05:30:36;;;;;;;9.70;7.60;;;;;;;;;;5047804;28;20278;-75
2021/09/09 05:33:05;;;;;;;10.77;7.63;;;;;;;;;;5050344;28;20290;-74
2021/09/09 05:35:35;;;;;;;8.63;7.67;;;;;;;;;;5046672;28;20664;-75
2021/09/09 05:38:04;;;;;;;11.30;7.63;;;;;;;;;;5037142;28;20258;-75
2021/09/09 05:40:34;;;;;;;11.37;7.73;;;;;;;;;;5046842;28;20207;-75
2021/09/09 05:43:04;;;;;;;9.23;7.53;;;;;;;;;;5047881;28;20306;-76
2021/09/09 05:45:36;;;;;;;12.87;8.13;;;;;;;;;;5050175;28;20242;-75
2021/09/09 05:48:04;;;;;;;10.70;7.57;;;;;;;;;;5050565;28;20374;-75
2021/09/09 05:50:33;;;;;;;12.00;7.77;;;;;;;;;;5044156;28;20283;-75
2021/09/09 05:53:01;;;;;;;13.90;8.10;;;;;;;;;;5050708;28;20311;-74
2021/09/09 05:55:31;;;;;;;11.30;7.40;;;;;;;;;;5050689;28;20239;-74
2021/09/09 05:58:01;;;;;;;10.13;7.63;;;;;;;;;;5033244;28;20310;-75
2021/09/09 06:00:31;;;;;;;10.63;7.60;;;;;;;;;;5044460;28;20295;-74
2021/09/09 06:03:03;;;;;;;10.83;7.83;;;;;;;;;;5034793;28;20326;-75
2021/09/09 06:05:34;;;;;;;10.90;7.43;;;;;;;;;;5030222;28;20224;-74
2021/09/09 06:08:05;;;;;;;10.53;7.50;;;;;;;;;;5031765;28;20201;-75
2021/09/09 06:10:35;;;;;;;14.20;7.90;;;;;;;;;;5033539;28;20299;-75
2021/09/09 06:13:04;;;;;;;11.03;7.73;;;;;;;;;;5033595;28;20291;-75
2021/09/09 06:15:33;;;;;;;10.93;8.50;;;;;;;;;;5047761;28;20227;-75
2021/09/09 06:18:03;;;;;;;10.73;7.43;;;;;;;;;;5044159;28;20753;-75
2021/09/09 06:20:32;;;;;;;11.73;7.83;;;;;;;;;;5045575;28;20202;-75
2021/09/09 06:23:01;;;;;;;9.63;7.53;;;;;;;;;;5054799;28;20357;-75
2021/09/09 06:25:30;;;;;;;8.38;7.25;;;;;;;;;;5048963;28;20243;-75
2021/09/09 06:27:58;;;;;;;11.07;7.67;;;;;;;;;;5034792;28;20288;-75
2021/09/09 06:30:28;;;;;;;8.67;6.63;;;;;;;;;;5034718;28;20287;-75
2021/09/09 06:32:57;;;;;;;9.97;7.10;;;;;;;;;;5034735;28;20200;-75
2021/09/09 06:35:29;;;;;;;12.80;7.93;;;;;;;;;;5034058;28;20287;-74
2021/09/09 06:37:57;;;;;;;9.50;7.50;;;;;;;;;;5034342;28;20200;-75
2021/09/09 06:40:28;;;;;;;10.77;8.20;;;;;;;;;;5034761;28;20262;-75
2021/09/09 06:42:56;;;;;;;11.13;8.30;;;;;;;;;;5034902;28;20196;-75
2021/09/09 06:45:26;;;;;;;10.40;8.30;;;;;;;;;;5044226;28;20224;-75
2021/09/09 06:47:57;;;;;;;10.95;8.70;;;;;;;;;;5045041;28;20203;-75
2021/09/09 06:50:28;;;;;;;10.93;7.88;;;;;;;;;;5053745;28;20192;-74
2021/09/09 06:53:01;;;;;;;10.75;7.40;;;;;;;;;;5053857;28;20234;-74
2021/09/09 06:55:31;;;;;;;10.20;7.72;;;;;;;;;;5052468;28;20200;-75
2021/09/09 06:58:02;;;;;;;11.82;8.10;;;;;;;;;;5053446;28;20299;-75
2021/09/09 07:00:34;;;;;;;9.68;7.45;;;;;;;;;;5053971;28;20313;-76
2021/09/09 07:03:02;;;;;;;12.93;9.15;;;;;;;;;;5053515;28;20314;-75
2021/09/09 07:05:33;;;;;;;10.50;8.35;;;;;;;;;;5053002;28;20291;-75
2021/09/09 07:08:01;;;;;;;13.48;8.75;;;;;;;;;;5054433;28;20200;-75
2021/09/09 07:10:30;;;;;;;13.00;8.82;;;;;;;;;;5053835;28;20241;-76
2021/09/09 07:12:58;;;;;;;11.07;8.43;;;;;;;;;;5054250;28;20294;-75
2021/09/09 07:15:28;;;;;;;10.33;8.20;;;;;;;;;;5052676;28;20295;-75
2021/09/09 07:17:57;;;;;;;12.68;7.85;;;;;;;;;;5053722;28;20681;-76
2021/09/09 07:20:27;;;;;;;11.73;7.43;;;;;;;;;;5051272;28;20220;-75
2021/09/09 07:22:58;;;;;;;7.30;5.93;;;;;;;;;;5042609;28;20206;-75
2021/09/09 07:25:29;;;;;;;8.82;6.03;;;;;;;;;;5053195;28;20235;-76
2021/09/09 07:28:01;;;;;;;9.35;5.88;;;;;;;;;;5053718;28;20286;-75
2021/09/09 07:30:33;;;;;;;8.88;5.28;;;;;;;;;;5053546;28;20232;-75
2021/09/09 07:33:03;;;;;;;9.23;4.95;;;;;;;;;;5053376;28;20203;-75
2021/09/09 07:35:33;;;;;;;8.63;5.13;;;;;;;;;;5052760;28;20234;-73
2021/09/09 07:38:04;;;;;;;7.25;4.70;;;19.00;99.90;;;;;;5053388;28;20762;-74
2021/09/09 07:40:33;;;;;;;9.57;4.85;;;19.10;99.90;;;;;;5053200;28;20273;-75
2021/09/09 07:43:02;;;;;;;5.97;4.35;;;;;;;;;;5053816;28;20291;-75
2021/09/09 07:45:32;;;;;;;7.30;4.25;;;;;;;;;;5053457;28;20290;-75
2021/09/09 07:48:01;;;;;;;7.47;3.90;;;;;;;;;;5053146;28;20611;-75
2021/09/09 07:50:31;;;;;;;5.38;3.70;;;;;;;;;;5052543;28;20282;-75
2021/09/09 07:53:01;;;;;;;7.80;3.70;;;;;;;;;;5053159;28;20742;-75
2021/09/09 07:55:32;;;;;;;6.20;3.90;;;;;;;;;;5053000;28;20642;-77
2021/09/09 07:57:59;;;;;;;5.70;3.53;;;;;;;;;;5052850;28;20257;-76
2021/09/09 08:00:26;;;;;;;6.93;3.80;;;;;;;;;;5053451;28;20306;-75
2021/09/09 08:02:53;;;;;;;6.75;4.28;;;;;;;;;;5052487;28;20322;-75
2021/09/09 08:05:21;;;;;;;7.68;4.25;;;;;;;;;;5053192;28;20290;-74
2021/09/09 08:07:48;;;;;;;8.15;4.53;;;;;;;;;;5052579;28;20239;-74
2021/09/09 08:10:16;;;;;;;7.68;4.65;;;;;;;;;;5052721;28;20282;-73
2021/09/09 08:12:46;;;;;;;7.85;5.30;;;;;;;;;;5052562;28;20283;-74
2021/09/09 08:15:13;;;;;;;8.88;5.47;;;;;;;;;;5053074;28;20627;-75
2021/09/09 08:17:41;;;;;;;9.63;5.40;;;;;;;;;;5052520;28;20291;-75
2021/09/09 08:20:09;;;;;;;8.30;5.28;;;;;;;;;;5040157;28;20281;-75
2021/09/09 08:22:36;;;;;;;10.70;5.90;;;;;;;;;;5032548;28;20681;-75
2021/09/09 08:25:04;;;;;;;10.77;5.57;;;;;;;;;;5041981;28;20204;-75
2021/09/09 08:27:31;;;;;;;11.02;5.60;;;;;;;;;;5052577;28;20227;-75
2021/09/09 08:30:02;;;;;;;7.28;4.90;;;;;;;;;;5052422;28;20234;-76
2021/09/09 08:32:29;;;;;;;6.45;4.57;;;;;;;;;;5052429;28;20239;-75
2021/09/09 08:34:57;;;;;;;7.00;4.45;;;;;;;;;;5052298;28;20199;-75
2021/09/09 08:37:24;;;;;;;9.02;4.72;;;;;;;;;;5051298;28;20242;-75
2021/09/09 08:39:52;;;;;;;6.50;4.40;;;;;;;;;;5051669;28;20207;-75
2021/09/09 08:42:19;;;;;;;8.52;4.40;;;;;;;;;;5049173;28;20227;-76
2021/09/09 08:44:47;;;;;;;8.70;4.30;;;;;;;;;;5050193;28;20196;-79
2021/09/09 08:47:16;;;;;;;7.82;4.32;;;;;;;;;;5050196;28;20564;-75
2021/09/09 08:49:45;;;;;;;8.80;3.63;;;;;;;;;;5041469;28;20207;-76
2021/09/09 08:52:13;;;;;;;6.88;3.92;;;;;;;;;;5044958;28;20196;-76
2021/09/09 08:54:41;;;;;;;6.00;3.55;;;;;;;;;;5050934;28;20204;-76
2021/09/09 08:57:08;;;;;;;8.70;4.13;;;;;;;;;;5051228;28;20656;-77
2021/09/09 08:59:36;;;;;;;5.38;3.42;;;;;;;;;;5051188;28;20234;-77
2021/09/09 09:02:08;;;;;;;6.32;3.88;;;;;;;;;;5044224;28;20744;-77
2021/09/09 09:04:37;;;;;;;6.20;3.55;;;;;;;;;;5031598;28;20228;-77
2021/09/09 09:07:05;;;;;;;6.70;3.58;;;;;;;;;;5043693;28;20280;-77
2021/09/09 09:09:34;;;;;;;8.20;3.72;;;;;;;;;;5046595;28;20287;-76
2021/09/09 09:12:02;;;;;;;6.65;3.65;;;;;;;;;;5051046;28;20644;-76
2021/09/09 09:14:29;;;;;;;6.38;3.90;;;;;;;;;;5050506;28;20234;-76
2021/09/09 09:16:58;;;;;;;6.13;4.18;;;;;;;;;;5051078;28;20286;-77
2021/09/09 09:19:27;;;;;;;8.43;5.10;;;;;;;;;;5050884;28;20282;-77
2021/09/09 09:21:56;;;;;;;5.75;3.47;;;;;;;;;;5050982;28;20306;-77
2021/09/09 09:24:31;;;;;;;5.25;3.90;;;;;;;;;;5050590;28;20295;-77
2021/09/09 09:27:10;;;;;;;4.55;3.00;;;;;;;;;;5051825;28;20219;-77
2021/09/09 09:29:37;;;;;;;6.82;3.13;;;;;;;;;;5044493;28;20282;-77
2021/09/09 09:32:11;;;;;;;4.38;2.65;;;;;;;;;;5039923;28;20280;-77
2021/09/09 09:34:38;;;;;;;4.38;3.10;;;;;;;;;;5042103;28;20232;-77
2021/09/09 09:37:07;;;;;;;4.30;2.70;;;;;;;;;;5044026;28;20228;-77
2021/09/09 09:39:35;;;;;;;4.68;2.92;;;;;;;;;;5040349;28;20199;-77
2021/09/09 09:42:05;;;;;;;3.97;2.60;;;;;;;;;;5046677;28;20314;-77
2021/09/09 09:44:33;;;;;;;5.18;2.85;;;;;;;;;;5034531;28;20287;-77
2021/09/09 09:47:10;;;;;;;5.60;3.22;;;;;;;;;;5047010;28;20625;-77
2021/09/09 09:49:39;;;;;;;4.10;2.65;;;;;;;;;;5034667;28;20728;-77
2021/09/09 09:52:09;;;;;;;6.20;2.92;;;;;;;;;;5043509;28;20197;-77
2021/09/09 09:54:39;;;;;;;4.13;2.67;;;;;;;;;;5048529;28;20208;-77
2021/09/09 09:57:12;;;;;;;5.45;2.45;;;;;;;;;;5050895;28;20200;-77
2021/09/09 09:59:39;;;;;;;5.07;3.17;;;;;;;;;;5049983;28;20314;-77
2021/09/09 10:02:07;;;;;;;4.75;4.20;;;;;;;;;;5050309;28;20318;-77
2021/09/09 10:04:34;;;;;;;4.25;3.20;;;;;;;;;;5050895;28;20310;-77
2021/09/09 10:07:06;;;;;;;5.18;3.13;;;;;;;;;;5049724;28;20626;-78
2021/09/09 10:09:35;;;;;;;4.18;2.80;;;;;;;;;;5050651;28;20195;-77
2021/09/09 10:12:02;;;;;;;6.05;3.33;;;;;;;;;;5049936;28;20192;-78
2021/09/09 10:14:29;;;;;;;5.65;3.70;;;;;;;;;;5050711;28;20283;-78
2021/09/09 10:16:59;;;;;;;4.28;3.22;;;;;;;;;;5050870;28;20231;-77
2021/09/09 10:19:28;;;;;;;6.05;3.25;;;;;;;;;;5035534;28;20192;-77
2021/09/09 10:22:05;;;;;;;6.40;3.40;;;;;;;;;;5049877;28;20730;-77
2021/09/09 10:24:35;;;;;;;5.95;3.38;;;;;;;;;;5039484;28;20232;-77
2021/09/09 10:27:16;;;;;;;5.80;3.22;;;;;;;;;;5030837;28;20204;-77
2021/09/09 10:29:47;;;;;;;4.65;2.80;;;;;;;;;;5036910;28;20196;-77
2021/09/09 10:32:34;;;;;;;5.78;3.30;;;;;;;;;;5042005;28;20200;-77
2021/09/09 10:35:16;;;;;;;4.35;2.95;;;;;;;;;;5050374;28;20283;-77
2021/09/09 10:37:43;;;;;;;4.75;3.22;;;;;;;;;;5040904;28;20192;-76
2021/09/09 10:40:31;;;;;;;4.97;2.97;;;;;;;;;;5039704;28;20287;-77
2021/09/09 10:42:58;;;;;;;6.45;3.70;;;;;;;;;;5049757;28;20226;-77
2021/09/09 10:45:38;;;;;;;6.35;3.40;;;;;;;;;;5050163;28;20288;-77
2021/09/09 10:48:06;;;;;;;7.60;3.50;;;;;;;;;;5050394;28;20279;-77
2021/09/09 10:50:33;;;;;;;5.65;3.50;;;;;;;;;;5049908;28;20196;-76
2021/09/09 10:53:03;;;;;;;8.10;3.72;;;;;;;;;;5049979;28;20287;-77
2021/09/09 10:55:33;;;;;;;5.80;4.20;;;;;;;;;;5050894;28;20196;-77
2021/09/09 10:58:27;;;;;;;5.82;3.78;;;;;;;;;;5053805;28;20241;-77
2021/09/09 11:00:56;;;;;;;5.30;3.75;;;;;;;;;;4986212;28;20218;-77
2021/09/09 11:03:37;;;;;;;6.85;4.32;;;;;;;;;;4981183;28;20734;-77
2021/09/09 11:06:05;;;;;;;7.38;4.35;;;;;;;;;;4984244;28;20251;-76
2021/09/09 11:08:32;;;;;;;7.07;4.75;;;;;;;;;;4992122;28;20278;-76
2021/09/09 11:11:01;;;;;;;8.93;5.45;;;;;;;;;;4982192;28;20282;-78
2021/09/09 11:13:29;;;;;;;8.35;4.82;;;;;;;;;;4981055;28;20285;-76
2021/09/09 11:15:56;;;;;;;8.65;4.97;;;;;;;;;;4978078;28;20230;-77
2021/09/09 11:18:27;;;;;;;5.65;4.50;;;;;;;;;;4976825;28;20221;-78
2021/09/09 11:21:04;;;;;;;6.70;4.00;;;;;;;;;;4988385;28;20317;-77
2021/09/09 11:23:32;;;;;;;3.58;2.90;;;;;;;;;;4975390;28;20210;-78
2021/09/09 11:26:11;;;;;;;3.03;2.45;;;;;;;;;;4990128;28;20277;-77
2021/09/09 11:28:38;;;;;;;2.92;2.30;;;;;;;;;;4991277;28;20625;-77
2021/09/09 11:31:09;;;;;;;2.42;2.17;;;;;;;;;;4985090;28;20599;-78
2021/09/09 11:33:49;;;;;;;2.35;2.03;;;;;;;;;;4985181;28;20201;-77
2021/09/09 11:36:16;;;;;;;4.38;2.22;;;;;;;;;;5005193;28;20291;-77
2021/09/09 11:38:43;;;;;;;3.22;2.20;;;;;;;;;;5035943;28;20196;-78
2021/09/09 11:41:13;;;;;;;3.92;2.05;;;;;;;;;;5035714;28;20320;-77
2021/09/09 11:43:41;;;;;;;3.70;1.98;;;;;;;;;;5045149;28;20270;-78
2021/09/09 11:46:08;;;;;;;2.42;1.85;;;;;;;;;;5043887;28;20206;-78
2021/09/09 11:48:35;;;;;;;3.25;1.95;;;;;;;;;;5040582;28;20232;-78
2021/09/09 11:51:02;;;;;;;2.95;1.80;;;;;;;;;;5033377;28;20279;-78
2021/09/09 11:53:30;;;;;;;3.03;2.15;;;;;;;;;;5045058;28;20283;-78
2021/09/09 11:55:57;;;;;;;2.70;2.10;;;;;;;;;;5052827;28;20286;-78
2021/09/09 11:58:36;;;;;;;4.90;2.50;;;;;;;;;;5052248;28;20246;-77
2021/09/09 12:01:10;;;;;;;5.28;2.72;;;;;;;;;;5052662;28;20215;-78
2021/09/09 12:03:37;;;;;;;3.08;2.53;;;;;;;;;;5051895;28;20755;-78
2021/09/09 12:06:05;;;;;;;5.53;2.67;;;;;;;;;;5052477;28;20286;-78
2021/09/09 12:08:35;;;;;;;5.25;2.72;;;;;;;;;;5052286;28;20287;-78
2021/09/09 12:11:09;;;;;;;4.78;2.78;;;;;;;;;;5044742;28;20224;-78
2021/09/09 12:13:40;;;;;;;4.47;2.88;;;;;;;;;;5050213;28;20293;-78
2021/09/09 12:16:11;;;;;;;5.13;2.70;;;;;;;;;;5045072;28;20576;-78
2021/09/09 12:18:38;;;;;;;3.58;2.35;;;;;;;;;;5051052;28;20205;-77
2021/09/09 12:21:09;;;;;;;5.85;3.08;;;;;;;;;;5050637;28;20251;-78
2021/09/09 12:23:56;;;;;;;2.88;2.45;;;;;;;;;;5043827;28;20208;-78
2021/09/09 12:26:23;;;;;;;4.78;2.53;;;;;;;;;;5052496;28;20192;-78
2021/09/09 12:28:52;;;;;;;4.57;2.50;;;;;;;;;;5052365;28;20294;-77
2021/09/09 12:31:32;;;;;;;3.40;2.55;;;;;;;;;;5051212;28;20219;-78
2021/09/09 12:33:59;;;;;;;4.03;2.58;;;;;;;;;;5051957;28;20204;-78
2021/09/09 12:36:39;;;;;;;4.07;2.80;;;;;;;;;;5053073;28;20204;-78
2021/09/09 12:39:06;;;;;;;4.93;3.03;;;;;;;;;;5052429;28;20207;-77
2021/09/09 12:41:34;;;;;;;3.90;2.67;;;;;;;;;;5051895;28;20258;-78
2021/09/09 12:44:17;;;;;;;5.93;2.92;;;;;;;;;;5050830;28;20228;-78
2021/09/09 12:46:45;;;;;;;4.70;2.60;;;;;;;;;;5052484;28;20199;-77
2021/09/09 12:49:12;;;;;;;5.22;2.88;;;;;;;;;;5051934;28;20196;-78
2021/09/09 12:51:42;;;;;;;4.63;2.78;;;;;;;;;;5052446;28;20655;-77
2021/09/09 12:54:10;;;;;;;4.78;3.10;;;;;;;;;;5051783;28;20596;-78
2021/09/09 12:56:37;;;;;;;3.25;2.95;;;;;;;;;;5052119;28;20239;-77
2021/09/09 12:59:05;;;;;;;4.90;3.40;;;;;;;;;;5051297;28;20292;-78
2021/09/09 13:01:33;;;;;;;6.22;3.47;;;;;;;;;;5051492;28;20695;-77
2021/09/09 13:04:02;;;;;;;4.93;3.38;;;;;;;;;;5050614;28;20273;-77
2021/09/09 13:06:29;;;;;;;4.95;3.45;;;;;;;;;;5051389;28;20339;-77
2021/09/09 13:08:56;;;;;;;4.63;3.28;;;;;;;;;;5051333;28;20258;-77
2021/09/09 13:11:23;;;;;;;5.50;3.10;;;;;;;;;;5051855;28;20279;-77
2021/09/09 13:14:01;;;;;;;4.88;3.20;;;;;;;;;;5051513;28;20283;-78
2021/09/09 13:16:28;;;;;;;5.13;2.97;;;;;;;;;;5051589;28;20245;-77
2021/09/09 13:18:57;;;;;;;4.50;3.60;;;;;;;;;;5049908;28;20247;-78
2021/09/09 13:21:28;;;;;;;8.48;3.70;;;;;;;;;;5050034;28;20259;-78
2021/09/09 13:23:55;;;;;;;7.63;3.50;;;;;;;;;;5038468;28;20702;-78
2021/09/09 13:26:23;;;;;;;7.55;3.92;;;;;;;;;;5043571;28;20670;-78
2021/09/09 13:28:50;;;;;;;6.38;3.67;;;;;;;;;;5043370;28;20679;-78
2021/09/09 13:31:21;;;;;;;5.55;3.85;;;;;;;;;;5049258;28;20282;-78
2021/09/09 13:33:48;;;;;;;5.85;3.72;;;;;;;;;;5049954;28;20195;-78
2021/09/09 13:36:17;;;;;;;7.53;4.07;;;;;;;;;;5049054;28;20303;-78
2021/09/09 13:38:44;;;;;;;7.90;4.32;;;;;;;;;;5051463;28;20227;-78
2021/09/09 13:41:12;;;;;;;9.15;5.25;;;;;;;;;;5050573;28;20223;-77
2021/09/09 13:43:39;;;;;;;7.05;4.35;;;;;;;;;;5050621;28;20293;-78
2021/09/09 13:46:07;;;;;;;4.65;2.97;;;;;;;;;;5041881;28;20273;-77
2021/09/09 13:48:34;;;;;;;5.35;3.20;;;;;;;;;;5050340;28;20284;-77
2021/09/09 13:51:01;;;;;;;5.85;3.08;;;;;;;;;;5050381;28;20666;-77
2021/09/09 13:53:30;;;;;;;5.82;3.60;;;;;;;;;;5050323;28;20227;-77
2021/09/09 13:55:57;;;;;;;5.13;3.22;;;;;;;;;;5050548;28;20281;-77
2021/09/09 13:58:24;;;;;;;5.07;3.00;;;;;;;;;;5050989;28;20294;-77
2021/09/09 14:00:52;;;;;;;3.78;3.10;;;;;;;;;;5050591;28;20568;-78
2021/09/09 14:03:19;;;;;;;4.85;2.53;;;;;;;;;;5049722;28;20239;-78
2021/09/09 14:05:46;;;;;;;4.03;3.10;;;;;;;;;;5050855;28;20754;-77
2021/09/09 14:08:14;;;;;;;5.10;2.85;;;;;;;;;;5049830;28;20206;-77
2021/09/09 14:10:42;;;;;;;5.63;2.80;;;;;;;;;;5050259;28;20202;-77
2021/09/09 14:13:10;;;;;;;3.72;2.70;;;;;;;;;;5050833;28;20278;-78
2021/09/09 14:15:37;;;;;;;3.20;2.50;;;;;;;;;;5050208;28;20208;-77
2021/09/09 14:18:04;;;;;;;4.22;2.80;;;;;;;;;;5050359;28;20279;-77
2021/09/09 14:20:35;;;;;;;3.88;2.70;;;;;;;;;;5049904;28;20210;-78
2021/09/09 14:23:02;;;;;;;4.40;2.90;;;;;;;;;;5044069;28;20271;-77
2021/09/09 14:25:29;;;;;;;3.97;2.88;;;;;;;;;;5044860;28;20307;-78
2021/09/09 14:27:58;;;;;;;5.20;3.05;;;;;;;;;;5046001;28;20273;-77
2021/09/09 14:30:25;;;;;;;4.60;2.83;;;;;;;;;;5050477;28;20291;-76
2021/09/09 14:32:52;;;;;;;5.85;3.08;;;;;;;;;;5053388;28;20227;-77
2021/09/09 14:35:20;;;;;;;7.80;3.45;;;;;;;;;;5050851;28;20290;-77
2021/09/09 14:37:48;;;;;;;4.60;3.20;;;;;;;;;;5051375;28;20815;-77
2021/09/09 14:40:16;;;;;;;6.15;3.30;;;;;;;;;;5048699;28;20227;-76
2021/09/09 14:42:43;;;;;;;4.78;3.20;;;;;;;;;;5045512;28;20571;-77
2021/09/09 14:45:12;;;;;;;5.00;3.17;;;;;;;;;;5053717;28;20618;-77
2021/09/09 14:47:40;;;;;;;5.68;3.30;;;;;;;;;;5040566;28;20231;-77